sensor_id;sensor_type;location;lat;lon;timestamp;temperature;humidity
30304;DHT22;17112;48.636;10.152;2023-07-31T00:00:47;16.00;61.20
30304;DHT22;17112;48.636;10.152;2023-07-31T00:03:12;16.00;61.50
30304;DHT22;17112;48.636;10.152;2023-07-31T00:05:38;16.00;61.60
30304;DHT22;17112;48.636;10.152;2023-07-31T00:08:04;15.90;61.60
30304;DHT22;17112;48.636;10.152;2023-07-31T00:10:29;15.90;61.80
30304;DHT22;17112;48.636;10.152;2023-07-31T00:12:55;15.90;62.00
30304;DHT22;17112;48.636;10.152;2023-07-31T00:15:20;15.90;62.10
30304;DHT22;17112;48.636;10.152;2023-07-31T00:17:46;15.90;62.10
30304;DHT22;17112;48.636;10.152;2023-07-31T00:20:13;15.90;62.20
30304;DHT22;17112;48.636;10.152;2023-07-31T00:22:38;15.90;62.10
30304;DHT22;17112;48.636;10.152;2023-07-31T00:25:04;15.90;62.10
30304;DHT22;17112;48.636;10.152;2023-07-31T00:27:32;15.90;62.10
30304;DHT22;17112;48.636;10.152;2023-07-31T00:29:57;15.90;62.30
30304;DHT22;17112;48.636;10.152;2023-07-31T00:32:23;15.80;62.30
30304;DHT22;17112;48.636;10.152;2023-07-31T00:34:49;15.90;62.40
30304;DHT22;17112;48.636;10.152;2023-07-31T00:37:14;15.80;62.20
30304;DHT22;17112;48.636;10.152;2023-07-31T00:39:40;15.80;62.10
30304;DHT22;17112;48.636;10.152;2023-07-31T00:42:06;15.70;62.20
30304;DHT22;17112;48.636;10.152;2023-07-31T00:44:32;15.70;62.20
30304;DHT22;17112;48.636;10.152;2023-07-31T00:46:58;15.70;62.30
30304;DHT22;17112;48.636;10.152;2023-07-31T00:49:25;15.60;62.40
30304;DHT22;17112;48.636;10.152;2023-07-31T00:51:51;15.60;62.60
30304;DHT22;17112;48.636;10.152;2023-07-31T00:54:17;15.60;62.70
30304;DHT22;17112;48.636;10.152;2023-07-31T00:56:45;15.60;62.70
30304;DHT22;17112;48.636;10.152;2023-07-31T00:59:11;15.50;62.80
30304;DHT22;17112;48.636;10.152;2023-07-31T01:01:37;15.50;62.70
30304;DHT22;17112;48.636;10.152;2023-07-31T01:04:04;15.50;62.80
30304;DHT22;17112;48.636;10.152;2023-07-31T01:11:57;15.40;63.60
30304;DHT22;17112;48.636;10.152;2023-07-31T01:14:25;15.30;63.30
30304;DHT22;17112;48.636;10.152;2023-07-31T01:16:51;15.40;63.40
30304;DHT22;17112;48.636;10.152;2023-07-31T01:19:19;15.30;63.50
30304;DHT22;17112;48.636;10.152;2023-07-31T01:27:21;15.30;65.20
30304;DHT22;17112;48.636;10.152;2023-07-31T01:30:05;15.30;63.80
30304;DHT22;17112;48.636;10.152;2023-07-31T01:32:39;15.30;64.40
30304;DHT22;17112;48.636;10.152;2023-07-31T01:35:06;15.20;63.50
30304;DHT22;17112;48.636;10.152;2023-07-31T01:37:32;15.20;63.50
30304;DHT22;17112;48.636;10.152;2023-07-31T01:39:58;15.20;63.70
30304;DHT22;17112;48.636;10.152;2023-07-31T01:42:24;15.20;63.90
30304;DHT22;17112;48.636;10.152;2023-07-31T01:44:49;15.20;64.00
30304;DHT22;17112;48.636;10.152;2023-07-31T01:47:15;15.10;64.00
30304;DHT22;17112;48.636;10.152;2023-07-31T01:49:40;15.10;63.90
30304;DHT22;17112;48.636;10.152;2023-07-31T01:52:06;15.10;64.00
30304;DHT22;17112;48.636;10.152;2023-07-31T01:54:32;15.10;64.10
30304;DHT22;17112;48.636;10.152;2023-07-31T01:56:58;15.10;64.30
30304;DHT22;17112;48.636;10.152;2023-07-31T01:59:24;15.00;64.30
30304;DHT22;17112;48.636;10.152;2023-07-31T02:01:50;15.00;64.40
30304;DHT22;17112;48.636;10.152;2023-07-31T02:04:15;15.00;64.40
30304;DHT22;17112;48.636;10.152;2023-07-31T02:06:41;15.00;64.50
30304;DHT22;17112;48.636;10.152;2023-07-31T02:09:07;15.00;64.50
30304;DHT22;17112;48.636;10.152;2023-07-31T02:11:32;15.00;64.60
30304;DHT22;17112;48.636;10.152;2023-07-31T02:13:58;15.00;64.60
30304;DHT22;17112;48.636;10.152;2023-07-31T02:16:24;14.90;64.50
30304;DHT22;17112;48.636;10.152;2023-07-31T02:18:50;14.90;64.60
30304;DHT22;17112;48.636;10.152;2023-07-31T02:21:16;14.90;64.70
30304;DHT22;17112;48.636;10.152;2023-07-31T02:23:41;14.90;64.60
30304;DHT22;17112;48.636;10.152;2023-07-31T02:26:07;14.90;64.60
30304;DHT22;17112;48.636;10.152;2023-07-31T02:28:33;14.90;64.50
30304;DHT22;17112;48.636;10.152;2023-07-31T02:30:59;14.90;64.50
30304;DHT22;17112;48.636;10.152;2023-07-31T02:33:24;14.80;64.60
30304;DHT22;17112;48.636;10.152;2023-07-31T02:35:50;14.80;64.80
30304;DHT22;17112;48.636;10.152;2023-07-31T02:38:16;14.80;65.00
30304;DHT22;17112;48.636;10.152;2023-07-31T02:40:41;14.80;64.90
30304;DHT22;17112;48.636;10.152;2023-07-31T02:43:08;14.80;64.90
30304;DHT22;17112;48.636;10.152;2023-07-31T02:45:34;14.80;65.00
30304;DHT22;17112;48.636;10.152;2023-07-31T02:48:00;14.70;65.10
30304;DHT22;17112;48.636;10.152;2023-07-31T02:50:25;14.70;65.40
30304;DHT22;17112;48.636;10.152;2023-07-31T02:52:53;14.70;65.40
30304;DHT22;17112;48.636;10.152;2023-07-31T02:55:18;14.70;65.40
30304;DHT22;17112;48.636;10.152;2023-07-31T02:57:44;14.70;65.30
30304;DHT22;17112;48.636;10.152;2023-07-31T03:00:10;14.70;65.20
30304;DHT22;17112;48.636;10.152;2023-07-31T03:02:35;14.70;65.20
30304;DHT22;17112;48.636;10.152;2023-07-31T03:05:01;14.70;65.20
30304;DHT22;17112;48.636;10.152;2023-07-31T03:07:27;14.70;65.10
30304;DHT22;17112;48.636;10.152;2023-07-31T03:09:52;14.60;65.00
30304;DHT22;17112;48.636;10.152;2023-07-31T03:12:18;14.70;65.20
30304;DHT22;17112;48.636;10.152;2023-07-31T03:14:45;14.60;65.10
30304;DHT22;17112;48.636;10.152;2023-07-31T03:17:10;14.60;65.30
30304;DHT22;17112;48.636;10.152;2023-07-31T03:19:36;14.60;65.30
30304;DHT22;17112;48.636;10.152;2023-07-31T03:22:02;14.60;65.50
30304;DHT22;17112;48.636;10.152;2023-07-31T03:24:28;14.60;65.60
30304;DHT22;17112;48.636;10.152;2023-07-31T03:26:54;14.50;65.60
30304;DHT22;17112;48.636;10.152;2023-07-31T03:29:20;14.50;65.60
30304;DHT22;17112;48.636;10.152;2023-07-31T03:31:46;14.50;65.70
30304;DHT22;17112;48.636;10.152;2023-07-31T03:34:11;14.50;65.80
30304;DHT22;17112;48.636;10.152;2023-07-31T03:36:37;14.50;65.80
30304;DHT22;17112;48.636;10.152;2023-07-31T03:39:03;14.40;65.70
30304;DHT22;17112;48.636;10.152;2023-07-31T03:41:29;14.40;65.80
30304;DHT22;17112;48.636;10.152;2023-07-31T03:43:54;14.40;65.90
30304;DHT22;17112;48.636;10.152;2023-07-31T03:46:23;14.40;66.10
30304;DHT22;17112;48.636;10.152;2023-07-31T03:48:49;14.30;66.00
30304;DHT22;17112;48.636;10.152;2023-07-31T03:51:15;14.30;66.10
30304;DHT22;17112;48.636;10.152;2023-07-31T03:53:42;14.30;66.30
30304;DHT22;17112;48.636;10.152;2023-07-31T03:56:08;14.30;66.50
30304;DHT22;17112;48.636;10.152;2023-07-31T03:58:34;14.30;66.50
30304;DHT22;17112;48.636;10.152;2023-07-31T04:01:02;14.30;66.60
30304;DHT22;17112;48.636;10.152;2023-07-31T04:03:27;14.30;66.60
30304;DHT22;17112;48.636;10.152;2023-07-31T04:05:54;14.30;66.70
30304;DHT22;17112;48.636;10.152;2023-07-31T04:08:24;14.30;66.90
30304;DHT22;17112;48.636;10.152;2023-07-31T04:10:50;14.30;67.00
30304;DHT22;17112;48.636;10.152;2023-07-31T04:13:16;14.30;67.10
30304;DHT22;17112;48.636;10.152;2023-07-31T04:15:42;14.30;67.20
30304;DHT22;17112;48.636;10.152;2023-07-31T04:18:07;14.30;67.20
30304;DHT22;17112;48.636;10.152;2023-07-31T04:20:33;14.40;67.40
30304;DHT22;17112;48.636;10.152;2023-07-31T04:22:59;14.30;67.40
30304;DHT22;17112;48.636;10.152;2023-07-31T04:25:25;14.40;67.50
30304;DHT22;17112;48.636;10.152;2023-07-31T04:27:50;14.40;67.50
30304;DHT22;17112;48.636;10.152;2023-07-31T04:30:16;14.40;67.50
30304;DHT22;17112;48.636;10.152;2023-07-31T04:32:42;14.40;67.50
30304;DHT22;17112;48.636;10.152;2023-07-31T04:35:07;14.50;67.30
30304;DHT22;17112;48.636;10.152;2023-07-31T04:37:33;14.50;67.20
30304;DHT22;17112;48.636;10.152;2023-07-31T04:39:59;14.50;67.30
30304;DHT22;17112;48.636;10.152;2023-07-31T04:42:24;14.50;68.10
30304;DHT22;17112;48.636;10.152;2023-07-31T04:44:50;14.60;67.60
30304;DHT22;17112;48.636;10.152;2023-07-31T04:47:18;14.60;67.80
30304;DHT22;17112;48.636;10.152;2023-07-31T04:49:44;14.60;68.00
30304;DHT22;17112;48.636;10.152;2023-07-31T04:52:09;14.70;68.20
30304;DHT22;17112;48.636;10.152;2023-07-31T04:54:35;14.70;68.10
30304;DHT22;17112;48.636;10.152;2023-07-31T04:57:00;14.80;68.10
30304;DHT22;17112;48.636;10.152;2023-07-31T04:59:26;14.90;68.10
30304;DHT22;17112;48.636;10.152;2023-07-31T05:01:52;15.00;68.10
30304;DHT22;17112;48.636;10.152;2023-07-31T05:04:17;15.10;68.00
30304;DHT22;17112;48.636;10.152;2023-07-31T05:06:43;15.10;67.90
30304;DHT22;17112;48.636;10.152;2023-07-31T05:09:09;15.20;67.90
30304;DHT22;17112;48.636;10.152;2023-07-31T05:11:36;15.30;67.90
30304;DHT22;17112;48.636;10.152;2023-07-31T05:14:01;15.40;67.90
30304;DHT22;17112;48.636;10.152;2023-07-31T05:16:27;15.50;68.00
30304;DHT22;17112;48.636;10.152;2023-07-31T05:18:53;15.50;67.90
30304;DHT22;17112;48.636;10.152;2023-07-31T05:21:18;15.60;67.80
30304;DHT22;17112;48.636;10.152;2023-07-31T05:23:44;15.70;67.70
30304;DHT22;17112;48.636;10.152;2023-07-31T05:26:09;15.80;68.50
30304;DHT22;17112;48.636;10.152;2023-07-31T05:28:36;15.90;67.80
30304;DHT22;17112;48.636;10.152;2023-07-31T05:31:05;15.90;68.40
30304;DHT22;17112;48.636;10.152;2023-07-31T05:33:30;16.00;67.70
30304;DHT22;17112;48.636;10.152;2023-07-31T05:35:56;16.10;67.30
30304;DHT22;17112;48.636;10.152;2023-07-31T05:38:22;16.20;67.10
30304;DHT22;17112;48.636;10.152;2023-07-31T05:40:48;16.20;67.00
30304;DHT22;17112;48.636;10.152;2023-07-31T05:43:14;16.30;67.00
30304;DHT22;17112;48.636;10.152;2023-07-31T05:45:41;16.40;67.10
30304;DHT22;17112;48.636;10.152;2023-07-31T05:48:07;16.40;67.10
30304;DHT22;17112;48.636;10.152;2023-07-31T05:50:33;16.40;67.10
30304;DHT22;17112;48.636;10.152;2023-07-31T05:52:58;16.50;67.70
30304;DHT22;17112;48.636;10.152;2023-07-31T05:55:25;16.60;67.50
30304;DHT22;17112;48.636;10.152;2023-07-31T05:57:54;16.60;67.40
30304;DHT22;17112;48.636;10.152;2023-07-31T06:00:20;16.80;67.60
30304;DHT22;17112;48.636;10.152;2023-07-31T06:02:49;16.80;67.50
30304;DHT22;17112;48.636;10.152;2023-07-31T06:05:15;17.00;67.20
30304;DHT22;17112;48.636;10.152;2023-07-31T06:07:40;17.10;67.00
30304;DHT22;17112;48.636;10.152;2023-07-31T06:10:07;17.20;67.00
30304;DHT22;17112;48.636;10.152;2023-07-31T06:12:34;17.30;66.80
30304;DHT22;17112;48.636;10.152;2023-07-31T06:14:59;17.40;66.70
30304;DHT22;17112;48.636;10.152;2023-07-31T06:17:25;17.50;66.60
30304;DHT22;17112;48.636;10.152;2023-07-31T06:19:54;17.50;66.40
30304;DHT22;17112;48.636;10.152;2023-07-31T06:22:20;17.60;66.60
30304;DHT22;17112;48.636;10.152;2023-07-31T06:24:46;17.70;66.30
30304;DHT22;17112;48.636;10.152;2023-07-31T06:27:12;17.80;66.40
30304;DHT22;17112;48.636;10.152;2023-07-31T06:29:37;17.80;66.40
30304;DHT22;17112;48.636;10.152;2023-07-31T06:32:03;18.00;66.40
30304;DHT22;17112;48.636;10.152;2023-07-31T06:34:29;18.10;66.30
30304;DHT22;17112;48.636;10.152;2023-07-31T06:36:56;18.10;66.10
30304;DHT22;17112;48.636;10.152;2023-07-31T06:39:21;18.30;65.90
30304;DHT22;17112;48.636;10.152;2023-07-31T06:41:47;18.40;65.90
30304;DHT22;17112;48.636;10.152;2023-07-31T06:44:13;18.50;65.50
30304;DHT22;17112;48.636;10.152;2023-07-31T06:46:39;18.70;65.20
30304;DHT22;17112;48.636;10.152;2023-07-31T06:49:04;18.80;65.10
30304;DHT22;17112;48.636;10.152;2023-07-31T06:51:30;18.90;64.90
30304;DHT22;17112;48.636;10.152;2023-07-31T06:53:57;19.00;64.70
30304;DHT22;17112;48.636;10.152;2023-07-31T06:56:23;19.10;64.80
30304;DHT22;17112;48.636;10.152;2023-07-31T06:58:49;19.10;64.70
30304;DHT22;17112;48.636;10.152;2023-07-31T07:01:14;19.30;64.50
30304;DHT22;17112;48.636;10.152;2023-07-31T07:03:40;19.40;64.50
30304;DHT22;17112;48.636;10.152;2023-07-31T07:06:05;19.50;64.70
30304;DHT22;17112;48.636;10.152;2023-07-31T07:08:31;19.60;64.70
30304;DHT22;17112;48.636;10.152;2023-07-31T07:10:57;19.80;64.40
30304;DHT22;17112;48.636;10.152;2023-07-31T07:13:22;19.90;63.90
30304;DHT22;17112;48.636;10.152;2023-07-31T07:15:49;20.10;62.90
30304;DHT22;17112;48.636;10.152;2023-07-31T07:18:15;20.20;62.30
30304;DHT22;17112;48.636;10.152;2023-07-31T07:20:47;20.30;61.90
30304;DHT22;17112;48.636;10.152;2023-07-31T07:23:13;20.40;61.30
30304;DHT22;17112;48.636;10.152;2023-07-31T07:25:38;20.40;60.90
30304;DHT22;17112;48.636;10.152;2023-07-31T07:28:04;20.50;60.70
30304;DHT22;17112;48.636;10.152;2023-07-31T07:30:30;20.60;60.50
30304;DHT22;17112;48.636;10.152;2023-07-31T07:32:55;20.60;60.30
30304;DHT22;17112;48.636;10.152;2023-07-31T07:35:21;20.70;60.30
30304;DHT22;17112;48.636;10.152;2023-07-31T07:37:49;20.70;60.10
30304;DHT22;17112;48.636;10.152;2023-07-31T07:40:15;20.70;59.70
30304;DHT22;17112;48.636;10.152;2023-07-31T07:42:41;20.80;59.40
30304;DHT22;17112;48.636;10.152;2023-07-31T07:45:07;20.90;59.40
30304;DHT22;17112;48.636;10.152;2023-07-31T07:47:33;20.90;58.90
30304;DHT22;17112;48.636;10.152;2023-07-31T07:49:58;20.90;58.70
30304;DHT22;17112;48.636;10.152;2023-07-31T07:52:24;21.10;58.40
30304;DHT22;17112;48.636;10.152;2023-07-31T07:54:50;21.10;58.40
30304;DHT22;17112;48.636;10.152;2023-07-31T07:57:16;21.20;58.40
30304;DHT22;17112;48.636;10.152;2023-07-31T07:59:42;21.30;58.10
30304;DHT22;17112;48.636;10.152;2023-07-31T08:02:08;21.50;57.60
30304;DHT22;17112;48.636;10.152;2023-07-31T08:04:33;21.60;57.20
30304;DHT22;17112;48.636;10.152;2023-07-31T08:06:59;21.70;56.20
30304;DHT22;17112;48.636;10.152;2023-07-31T08:09:24;21.80;56.30
30304;DHT22;17112;48.636;10.152;2023-07-31T08:11:50;21.90;55.80
30304;DHT22;17112;48.636;10.152;2023-07-31T08:14:16;22.00;55.00
30304;DHT22;17112;48.636;10.152;2023-07-31T08:16:42;22.10;54.90
30304;DHT22;17112;48.636;10.152;2023-07-31T08:19:08;22.10;54.90
30304;DHT22;17112;48.636;10.152;2023-07-31T08:21:33;22.10;54.80
30304;DHT22;17112;48.636;10.152;2023-07-31T08:23:59;22.20;54.50
30304;DHT22;17112;48.636;10.152;2023-07-31T08:26:25;22.20;54.30
30304;DHT22;17112;48.636;10.152;2023-07-31T08:28:50;22.20;54.00
30304;DHT22;17112;48.636;10.152;2023-07-31T08:31:16;22.20;53.70
30304;DHT22;17112;48.636;10.152;2023-07-31T08:33:42;22.20;53.50
30304;DHT22;17112;48.636;10.152;2023-07-31T08:36:07;22.10;53.30
30304;DHT22;17112;48.636;10.152;2023-07-31T08:38:33;22.10;53.00
30304;DHT22;17112;48.636;10.152;2023-07-31T08:40:59;22.00;53.10
30304;DHT22;17112;48.636;10.152;2023-07-31T08:43:28;22.10;53.60
30304;DHT22;17112;48.636;10.152;2023-07-31T08:45:54;22.20;53.20
30304;DHT22;17112;48.636;10.152;2023-07-31T08:48:22;22.30;53.80
30304;DHT22;17112;48.636;10.152;2023-07-31T08:50:48;22.50;53.50
30304;DHT22;17112;48.636;10.152;2023-07-31T08:53:13;22.60;53.00
30304;DHT22;17112;48.636;10.152;2023-07-31T08:55:40;22.80;52.70
30304;DHT22;17112;48.636;10.152;2023-07-31T08:58:06;22.90;52.30
30304;DHT22;17112;48.636;10.152;2023-07-31T09:00:32;23.10;51.80
30304;DHT22;17112;48.636;10.152;2023-07-31T09:03:01;23.20;51.10
30304;DHT22;17112;48.636;10.152;2023-07-31T09:05:30;23.30;50.50
30304;DHT22;17112;48.636;10.152;2023-07-31T09:07:56;23.40;50.50
30304;DHT22;17112;48.636;10.152;2023-07-31T09:10:22;23.50;51.00
30304;DHT22;17112;48.636;10.152;2023-07-31T09:12:50;23.70;51.00
30304;DHT22;17112;48.636;10.152;2023-07-31T09:15:16;23.90;51.20
30304;DHT22;17112;48.636;10.152;2023-07-31T09:17:42;24.00;50.20
30304;DHT22;17112;48.636;10.152;2023-07-31T09:20:17;24.10;50.00
30304;DHT22;17112;48.636;10.152;2023-07-31T09:22:43;24.20;47.80
30304;DHT22;17112;48.636;10.152;2023-07-31T09:30:16;24.40;48.30
30304;DHT22;17112;48.636;10.152;2023-07-31T09:32:43;24.50;48.00
30304;DHT22;17112;48.636;10.152;2023-07-31T09:35:20;24.60;47.10
30304;DHT22;17112;48.636;10.152;2023-07-31T09:37:51;24.50;47.10
30304;DHT22;17112;48.636;10.152;2023-07-31T09:40:29;24.50;47.00
30304;DHT22;17112;48.636;10.152;2023-07-31T09:43:03;24.50;46.60
30304;DHT22;17112;48.636;10.152;2023-07-31T09:45:29;24.60;47.20
30304;DHT22;17112;48.636;10.152;2023-07-31T09:47:56;24.60;48.00
30304;DHT22;17112;48.636;10.152;2023-07-31T09:50:23;24.70;47.30
30304;DHT22;17112;48.636;10.152;2023-07-31T09:52:50;24.80;46.90
30304;DHT22;17112;48.636;10.152;2023-07-31T09:55:16;24.80;46.10
30304;DHT22;17112;48.636;10.152;2023-07-31T09:57:48;24.90;46.60
30304;DHT22;17112;48.636;10.152;2023-07-31T10:00:18;24.90;44.90
30304;DHT22;17112;48.636;10.152;2023-07-31T10:02:47;25.00;45.90
30304;DHT22;17112;48.636;10.152;2023-07-31T10:05:14;25.00;45.40
30304;DHT22;17112;48.636;10.152;2023-07-31T10:07:51;25.10;45.30
30304;DHT22;17112;48.636;10.152;2023-07-31T10:10:20;25.10;45.00
30304;DHT22;17112;48.636;10.152;2023-07-31T10:12:49;25.20;44.60
30304;DHT22;17112;48.636;10.152;2023-07-31T10:15:18;25.30;45.50
30304;DHT22;17112;48.636;10.152;2023-07-31T10:17:47;25.40;45.50
30304;DHT22;17112;48.636;10.152;2023-07-31T10:20:14;25.50;45.50
30304;DHT22;17112;48.636;10.152;2023-07-31T10:22:43;25.60;45.30
30304;DHT22;17112;48.636;10.152;2023-07-31T10:25:11;25.70;45.50
30304;DHT22;17112;48.636;10.152;2023-07-31T10:27:39;25.80;44.50
30304;DHT22;17112;48.636;10.152;2023-07-31T10:30:08;25.90;43.10
30304;DHT22;17112;48.636;10.152;2023-07-31T10:32:34;25.80;42.90
30304;DHT22;17112;48.636;10.152;2023-07-31T10:35:01;25.80;43.30
30304;DHT22;17112;48.636;10.152;2023-07-31T10:37:30;25.70;43.10
30304;DHT22;17112;48.636;10.152;2023-07-31T10:40:03;25.60;43.60
30304;DHT22;17112;48.636;10.152;2023-07-31T10:42:37;25.60;44.40
30304;DHT22;17112;48.636;10.152;2023-07-31T10:45:07;25.50;43.80
30304;DHT22;17112;48.636;10.152;2023-07-31T10:47:38;25.60;44.20
30304;DHT22;17112;48.636;10.152;2023-07-31T10:50:16;25.60;44.20
30304;DHT22;17112;48.636;10.152;2023-07-31T10:52:46;25.60;43.90
30304;DHT22;17112;48.636;10.152;2023-07-31T10:57:52;25.80;44.30
30304;DHT22;17112;48.636;10.152;2023-07-31T11:00:28;26.00;44.50
30304;DHT22;17112;48.636;10.152;2023-07-31T11:03:06;26.10;43.80
30304;DHT22;17112;48.636;10.152;2023-07-31T11:08:17;26.20;43.00
30304;DHT22;17112;48.636;10.152;2023-07-31T11:10:45;26.30;43.60
30304;DHT22;17112;48.636;10.152;2023-07-31T11:13:12;26.40;43.80
30304;DHT22;17112;48.636;10.152;2023-07-31T11:15:38;26.40;43.50
30304;DHT22;17112;48.636;10.152;2023-07-31T11:18:04;26.40;43.50
30304;DHT22;17112;48.636;10.152;2023-07-31T11:20:34;26.50;43.70
30304;DHT22;17112;48.636;10.152;2023-07-31T11:23:08;26.60;43.00
30304;DHT22;17112;48.636;10.152;2023-07-31T11:25:35;26.70;42.50
30304;DHT22;17112;48.636;10.152;2023-07-31T11:28:13;26.80;42.40
30304;DHT22;17112;48.636;10.152;2023-07-31T11:30:40;26.90;42.10
30304;DHT22;17112;48.636;10.152;2023-07-31T11:33:07;27.10;42.30
30304;DHT22;17112;48.636;10.152;2023-07-31T11:35:34;27.10;41.60
30304;DHT22;17112;48.636;10.152;2023-07-31T11:38:01;27.30;41.00
30304;DHT22;17112;48.636;10.152;2023-07-31T11:40:27;27.30;41.40
30304;DHT22;17112;48.636;10.152;2023-07-31T11:42:58;27.30;40.70
30304;DHT22;17112;48.636;10.152;2023-07-31T11:45:27;27.40;40.80
30304;DHT22;17112;48.636;10.152;2023-07-31T11:47:57;27.50;40.00
30304;DHT22;17112;48.636;10.152;2023-07-31T11:50:24;27.60;40.00
30304;DHT22;17112;48.636;10.152;2023-07-31T11:53:00;27.70;40.60
30304;DHT22;17112;48.636;10.152;2023-07-31T11:55:26;27.70;39.50
30304;DHT22;17112;48.636;10.152;2023-07-31T11:57:54;27.80;41.20
30304;DHT22;17112;48.636;10.152;2023-07-31T12:00:20;27.80;40.90
30304;DHT22;17112;48.636;10.152;2023-07-31T12:02:47;27.90;40.50
30304;DHT22;17112;48.636;10.152;2023-07-31T12:05:13;27.90;40.30
30304;DHT22;17112;48.636;10.152;2023-07-31T12:10:30;28.00;40.00
30304;DHT22;17112;48.636;10.152;2023-07-31T12:13:06;27.90;39.00
30304;DHT22;17112;48.636;10.152;2023-07-31T12:15:38;28.00;40.00
30304;DHT22;17112;48.636;10.152;2023-07-31T12:18:09;28.10;40.20
30304;DHT22;17112;48.636;10.152;2023-07-31T12:20:35;28.30;40.20
30304;DHT22;17112;48.636;10.152;2023-07-31T12:23:05;28.40;39.30
30304;DHT22;17112;48.636;10.152;2023-07-31T12:25:32;28.50;38.40
30304;DHT22;17112;48.636;10.152;2023-07-31T12:28:03;28.50;37.50
30304;DHT22;17112;48.636;10.152;2023-07-31T12:30:34;28.50;38.40
30304;DHT22;17112;48.636;10.152;2023-07-31T12:33:11;28.40;37.80
30304;DHT22;17112;48.636;10.152;2023-07-31T12:35:40;28.40;37.50
30304;DHT22;17112;48.636;10.152;2023-07-31T12:38:06;28.30;38.30
30304;DHT22;17112;48.636;10.152;2023-07-31T12:40:32;28.20;38.70
30304;DHT22;17112;48.636;10.152;2023-07-31T12:43:01;28.20;39.40
30304;DHT22;17112;48.636;10.152;2023-07-31T12:45:28;28.30;39.60
30304;DHT22;17112;48.636;10.152;2023-07-31T12:47:53;28.40;39.80
30304;DHT22;17112;48.636;10.152;2023-07-31T12:50:19;28.60;39.90
30304;DHT22;17112;48.636;10.152;2023-07-31T12:52:45;28.70;39.10
30304;DHT22;17112;48.636;10.152;2023-07-31T12:55:10;28.70;38.10
30304;DHT22;17112;48.636;10.152;2023-07-31T12:57:36;28.70;37.80
30304;DHT22;17112;48.636;10.152;2023-07-31T13:00:03;28.60;38.60
30304;DHT22;17112;48.636;10.152;2023-07-31T13:02:29;28.60;38.40
30304;DHT22;17112;48.636;10.152;2023-07-31T13:04:54;28.50;38.10
30304;DHT22;17112;48.636;10.152;2023-07-31T13:07:22;28.50;38.30
30304;DHT22;17112;48.636;10.152;2023-07-31T13:09:48;28.40;38.50
30304;DHT22;17112;48.636;10.152;2023-07-31T13:12:13;28.20;38.60
30304;DHT22;17112;48.636;10.152;2023-07-31T13:14:39;28.10;38.70
30304;DHT22;17112;48.636;10.152;2023-07-31T13:17:05;27.90;39.10
30304;DHT22;17112;48.636;10.152;2023-07-31T13:19:31;27.80;38.90
30304;DHT22;17112;48.636;10.152;2023-07-31T13:21:57;27.70;39.50
30304;DHT22;17112;48.636;10.152;2023-07-31T13:24:22;27.70;39.70
30304;DHT22;17112;48.636;10.152;2023-07-31T13:26:48;27.70;40.20
30304;DHT22;17112;48.636;10.152;2023-07-31T13:29:14;27.70;39.70
30304;DHT22;17112;48.636;10.152;2023-07-31T13:31:39;27.60;39.70
30304;DHT22;17112;48.636;10.152;2023-07-31T13:34:05;27.60;39.60
30304;DHT22;17112;48.636;10.152;2023-07-31T13:36:30;27.60;39.70
30304;DHT22;17112;48.636;10.152;2023-07-31T13:38:56;27.60;40.30
30304;DHT22;17112;48.636;10.152;2023-07-31T13:41:22;27.70;40.00
30304;DHT22;17112;48.636;10.152;2023-07-31T13:43:47;27.70;40.00
30304;DHT22;17112;48.636;10.152;2023-07-31T13:46:13;27.90;39.90
30304;DHT22;17112;48.636;10.152;2023-07-31T13:48:39;28.00;40.20
30304;DHT22;17112;48.636;10.152;2023-07-31T13:51:04;28.00;40.20
30304;DHT22;17112;48.636;10.152;2023-07-31T13:53:30;28.00;39.90
30304;DHT22;17112;48.636;10.152;2023-07-31T13:55:56;28.00;39.50
30304;DHT22;17112;48.636;10.152;2023-07-31T13:58:22;27.90;39.50
30304;DHT22;17112;48.636;10.152;2023-07-31T14:00:47;27.90;39.90
30304;DHT22;17112;48.636;10.152;2023-07-31T14:03:13;27.80;40.40
30304;DHT22;17112;48.636;10.152;2023-07-31T14:05:39;27.70;40.00
30304;DHT22;17112;48.636;10.152;2023-07-31T14:08:04;27.60;39.70
30304;DHT22;17112;48.636;10.152;2023-07-31T14:10:30;27.50;39.90
30304;DHT22;17112;48.636;10.152;2023-07-31T14:12:56;27.50;40.30
30304;DHT22;17112;48.636;10.152;2023-07-31T14:15:21;27.40;40.10
30304;DHT22;17112;48.636;10.152;2023-07-31T14:17:47;27.40;40.10
30304;DHT22;17112;48.636;10.152;2023-07-31T14:20:12;27.40;40.20
30304;DHT22;17112;48.636;10.152;2023-07-31T14:22:38;27.40;40.60
30304;DHT22;17112;48.636;10.152;2023-07-31T14:25:04;27.50;41.30
30304;DHT22;17112;48.636;10.152;2023-07-31T14:27:30;27.60;40.40
30304;DHT22;17112;48.636;10.152;2023-07-31T14:29:56;27.70;41.30
30304;DHT22;17112;48.636;10.152;2023-07-31T14:32:24;27.80;40.70
30304;DHT22;17112;48.636;10.152;2023-07-31T14:34:51;27.80;39.50
30304;DHT22;17112;48.636;10.152;2023-07-31T14:37:17;27.80;39.50
30304;DHT22;17112;48.636;10.152;2023-07-31T14:39:42;27.80;39.80
30304;DHT22;17112;48.636;10.152;2023-07-31T14:42:09;27.70;39.90
30304;DHT22;17112;48.636;10.152;2023-07-31T14:44:34;27.60;40.10
30304;DHT22;17112;48.636;10.152;2023-07-31T14:47:00;27.60;40.20
30304;DHT22;17112;48.636;10.152;2023-07-31T14:49:26;27.60;39.90
30304;DHT22;17112;48.636;10.152;2023-07-31T14:51:53;27.50;39.70
30304;DHT22;17112;48.636;10.152;2023-07-31T14:54:19;27.40;39.80
30304;DHT22;17112;48.636;10.152;2023-07-31T14:56:45;27.40;39.80
30304;DHT22;17112;48.636;10.152;2023-07-31T14:59:11;27.30;39.90
30304;DHT22;17112;48.636;10.152;2023-07-31T15:01:37;27.10;39.90
30304;DHT22;17112;48.636;10.152;2023-07-31T15:04:03;27.00;40.10
30304;DHT22;17112;48.636;10.152;2023-07-31T15:06:28;26.90;40.40
30304;DHT22;17112;48.636;10.152;2023-07-31T15:08:54;26.70;40.40
30304;DHT22;17112;48.636;10.152;2023-07-31T15:11:20;26.70;40.70
30304;DHT22;17112;48.636;10.152;2023-07-31T15:13:46;26.60;40.90
30304;DHT22;17112;48.636;10.152;2023-07-31T15:16:11;26.50;40.90
30304;DHT22;17112;48.636;10.152;2023-07-31T15:18:37;26.40;41.10
30304;DHT22;17112;48.636;10.152;2023-07-31T15:21:03;26.30;41.30
30304;DHT22;17112;48.636;10.152;2023-07-31T15:23:29;26.30;41.80
30304;DHT22;17112;48.636;10.152;2023-07-31T15:25:55;26.20;41.70
30304;DHT22;17112;48.636;10.152;2023-07-31T15:28:21;26.20;42.00
30304;DHT22;17112;48.636;10.152;2023-07-31T15:30:47;26.10;42.20
30304;DHT22;17112;48.636;10.152;2023-07-31T15:33:13;26.10;42.30
30304;DHT22;17112;48.636;10.152;2023-07-31T15:35:38;26.10;43.00